Time;durP1;ratioP1;P1;durP2;ratioP2;P2;SDS_P1;SDS_P2;PMS_P1;PMS_P2;Temp;Humidity;BMP_temperature;BMP_pressure;BME280_temperature;BME280_humidity;BME280_pressure;Samples;Min_cycle;Max_cycle;Signal;HPM_P1;HPM_P2
2022/11/13 00:00:26;;;;;;;33.65;16.40;;;10.80;99.90;;;;;;5019905;28;20498;-63
2022/11/13 00:03:12;;;;;;;25.80;15.00;;;;;;;;;;5017514;28;20042;-71
2022/11/13 00:06:06;;;;;;;31.33;16.85;;;10.60;99.90;;;;;;5027924;28;20037;-64
2022/11/13 00:08:54;;;;;;;32.10;16.70;;;10.60;99.90;;;;;;5024514;28;20405;-59
2022/11/13 00:11:40;;;;;;;32.30;17.42;;;10.60;99.90;;;;;;5016804;28;20069;-67
2022/11/13 00:14:26;;;;;;;35.75;16.70;;;10.60;99.90;;;;;;5027557;28;20041;-65
2022/11/13 00:17:12;;;;;;;33.55;15.90;;;10.60;99.90;;;;;;5019736;28;20046;-64
2022/11/13 00:19:58;;;;;;;30.92;16.73;;;10.60;99.90;;;;;;5009356;28;20049;-67
2022/11/13 00:22:45;;;;;;;45.08;18.92;;;10.60;99.90;;;;;;5010597;28;20046;-76
2022/11/13 00:25:34;;;;;;;39.03;19.25;;;10.60;99.90;;;;;;5010621;28;20053;-64
2022/11/13 00:28:21;;;;;;;33.90;16.23;;;10.60;99.90;;;;;;5017217;28;20057;-65
2022/11/13 00:31:08;;;;;;;33.33;17.27;;;10.60;99.90;;;;;;5016730;28;20048;-66
2022/11/13 00:33:54;;;;;;;35.42;17.35;;;10.70;99.90;;;;;;5015359;28;20060;-61
2022/11/13 00:37:00;;;;;;;39.58;18.30;;;10.90;99.90;;;;;;5008212;28;20046;-64
2022/11/13 00:39:46;;;;;;;33.50;17.77;;;10.80;99.90;;;;;;5008254;28;20034;-61
2022/11/13 00:42:32;;;;;;;48.13;19.13;;;10.90;99.90;;;;;;5023044;28;20053;-75
2022/11/13 00:45:19;;;;;;;35.53;18.38;;;11.00;99.90;;;;;;5018042;28;20045;-63
2022/11/13 00:48:05;;;;;;;29.63;17.52;;;11.10;99.90;;;;;;5009465;28;20057;-77
2022/11/13 00:50:51;;;;;;;41.03;18.70;;;11.10;99.90;;;;;;5015768;28;20053;-72
2022/11/13 00:53:37;;;;;;;36.17;16.92;;;11.20;99.90;;;;;;5015601;28;20037;-71
2022/11/13 00:56:24;;;;;;;36.70;17.98;;;11.30;99.90;;;;;;5024594;28;20037;-72
2022/11/13 00:59:10;;;;;;;36.50;18.13;;;11.30;99.90;;;;;;5030287;28;20048;-73
2022/11/13 01:01:57;;;;;;;33.58;18.38;;;11.30;99.90;;;;;;5028292;28;20493;-76
2022/11/13 01:04:43;;;;;;;35.92;18.00;;;11.40;99.90;;;;;;5025767;28;20500;-71
2022/11/13 01:07:30;;;;;;;34.13;19.08;;;11.40;99.90;;;;;;5009554;28;20046;-72
2022/11/13 01:10:16;;;;;;;32.70;17.02;;;11.40;99.90;;;;;;5012007;28;20038;-61
2022/11/13 01:13:02;;;;;;;32.78;17.98;;;11.50;99.90;;;;;;5027861;28;20060;-58
2022/11/13 01:15:48;;;;;;;30.67;16.95;;;11.50;99.90;;;;;;5027840;28;20041;-58
2022/11/13 01:18:35;;;;;;;33.15;17.05;;;11.50;99.90;;;;;;5028841;28;20374;-59
2022/11/13 01:21:24;;;;;;;32.13;17.60;;;11.50;99.90;;;;;;5027338;28;20057;-66
2022/11/13 01:24:10;;;;;;;30.48;16.17;;;11.50;99.90;;;;;;5015232;28;20045;-59
2022/11/13 01:26:56;;;;;;;29.92;16.20;;;11.50;99.90;;;;;;5022856;28;20057;-59
2022/11/13 01:29:42;;;;;;;31.25;16.38;;;11.50;99.90;;;;;;5017774;28;20049;-58
2022/11/13 01:32:28;;;;;;;31.15;16.52;;;;;;;;;;5009698;28;20137;-59
2022/11/13 01:35:15;;;;;;;30.95;16.35;;;11.50;99.90;;;;;;5015076;28;20045;-60
2022/11/13 01:38:01;;;;;;;30.55;16.35;;;11.50;99.90;;;;;;5026567;28;20116;-58
2022/11/13 01:40:47;;;;;;;25.92;15.70;;;11.50;99.90;;;;;;5008979;28;20605;-58
2022/11/13 01:43:36;;;;;;;34.20;16.90;;;11.50;99.90;;;;;;5017268;28;20048;-61
2022/11/13 01:46:38;;;;;;;31.33;16.65;;;11.50;99.90;;;;;;5026987;28;20046;-57
2022/11/13 01:49:29;;;;;;;32.63;14.98;;;11.50;99.90;;;;;;5021500;28;20049;-59
2022/11/13 01:52:35;;;;;;;33.35;16.23;;;11.50;99.90;;;;;;5011483;28;20034;-58
2022/11/13 01:55:22;;;;;;;29.25;14.80;;;11.50;99.90;;;;;;5019308;28;20050;-59
2022/11/13 01:58:09;;;;;;;30.77;16.25;;;11.40;99.90;;;;;;5014083;28;20516;-60
2022/11/13 02:00:56;;;;;;;35.88;16.58;;;11.40;99.90;;;;;;5027884;28;20408;-58
2022/11/13 02:03:42;;;;;;;32.42;16.95;;;11.30;99.90;;;;;;5026721;28;20054;-60
2022/11/13 02:06:37;;;;;;;29.75;17.10;;;11.40;99.90;;;;;;5028221;28;20046;-60
2022/11/13 02:09:26;;;;;;;30.20;17.15;;;11.30;99.90;;;;;;5016123;28;20486;-60
2022/11/13 02:12:15;;;;;;;30.35;17.10;;;11.30;99.90;;;;;;5023608;28;20041;-59
2022/11/13 02:15:05;;;;;;;32.45;17.42;;;11.30;99.90;;;;;;5009895;28;20057;-60
2022/11/13 02:17:55;;;;;;;35.92;18.65;;;11.30;99.90;;;;;;5025736;28;20049;-60
2022/11/13 02:20:55;;;;;;;30.70;16.92;;;11.30;99.90;;;;;;5029538;28;20057;-60
2022/11/13 02:23:59;;;;;;;32.83;16.58;;;11.30;99.90;;;;;;5025497;28;20045;-60
2022/11/13 02:26:47;;;;;;;34.13;16.83;;;11.40;99.90;;;;;;5009754;28;20046;-60
2022/11/13 02:29:33;;;;;;;38.40;18.45;;;11.30;99.90;;;;;;5019671;28;20049;-60
2022/11/13 02:32:19;;;;;;;37.30;18.23;;;11.30;99.90;;;;;;5015835;28;20486;-60
2022/11/13 02:35:05;;;;;;;34.10;16.85;;;11.30;99.90;;;;;;5029410;28;20037;-60
2022/11/13 02:37:54;;;;;;;37.55;18.60;;;11.30;99.90;;;;;;5017172;28;20045;-59
2022/11/13 02:40:40;;;;;;;47.08;20.00;;;11.30;99.90;;;;;;5030535;28;20049;-59
2022/11/13 02:43:27;;;;;;;42.58;19.77;;;11.20;99.90;;;;;;5025072;28;20072;-59
2022/11/13 02:46:13;;;;;;;42.40;18.50;;;11.30;99.90;;;;;;5019868;28;20037;-59
2022/11/13 02:48:59;;;;;;;42.05;19.45;;;11.20;99.90;;;;;;5012578;28;20478;-60
2022/11/13 02:51:45;;;;;;;41.00;19.17;;;11.20;99.90;;;;;;5018997;28;20514;-59
2022/11/13 02:54:32;;;;;;;45.63;19.65;;;11.20;99.90;;;;;;5016865;28;20041;-60
2022/11/13 02:57:18;;;;;;;39.33;19.35;;;11.20;99.90;;;;;;5027806;28;20041;-61
2022/11/13 03:00:05;;;;;;;42.38;19.77;;;11.10;99.90;;;;;;5025343;28;20046;-60
2022/11/13 03:02:58;;;;;;;39.97;18.35;;;11.10;99.90;;;;;;5024827;28;20048;-60
2022/11/13 03:05:49;;;;;;;43.47;18.92;;;11.10;99.90;;;;;;5018655;28;20041;-63
2022/11/13 03:08:34;;;;;;;46.47;19.23;;;11.10;99.90;;;;;;5013323;28;20053;-61
2022/11/13 03:11:22;;;;;;;37.17;19.38;;;;;;;;;;5011800;28;20057;-59
2022/11/13 03:14:08;;;;;;;37.60;18.95;;;11.00;99.90;;;;;;5022288;28;20125;-59
2022/11/13 03:16:54;;;;;;;47.83;19.98;;;11.10;99.90;;;;;;5030764;28;20045;-59
2022/11/13 03:19:40;;;;;;;37.58;18.98;;;11.10;99.90;;;;;;5014081;28;20046;-60
2022/11/13 03:22:27;;;;;;;41.50;19.33;;;11.10;99.90;;;;;;5011722;28;20509;-62
2022/11/13 03:25:13;;;;;;;38.85;20.02;;;11.10;99.90;;;;;;5010818;28;20046;-62
2022/11/13 03:27:59;;;;;;;38.97;19.35;;;11.10;99.90;;;;;;5031582;28;20041;-75
2022/11/13 03:30:46;;;;;;;36.13;18.98;;;11.10;99.90;;;;;;5030542;28;20057;-75
2022/11/13 03:33:33;;;;;;;43.47;18.40;;;11.10;99.90;;;;;;5015460;28;20045;-77
2022/11/13 03:36:18;;;;;;;41.22;18.48;;;11.10;99.90;;;;;;5011804;28;20531;-70
2022/11/13 03:39:05;;;;;;;42.08;19.00;;;11.10;99.90;;;;;;5011802;28;20042;-71
2022/11/13 03:41:51;;;;;;;39.65;19.33;;;11.10;99.90;;;;;;5011539;28;20052;-64
2022/11/13 03:44:37;;;;;;;42.38;18.65;;;11.10;99.90;;;;;;5011485;28;20046;-60
2022/11/13 03:47:22;;;;;;;38.47;20.23;;;11.10;99.90;;;;;;5010413;28;20050;-61
2022/11/13 03:50:08;;;;;;;40.17;20.40;;;11.10;99.90;;;;;;5025750;28;20050;-60
2022/11/13 03:52:55;;;;;;;39.97;20.77;;;11.10;99.90;;;;;;5013377;28;20038;-60
2022/11/13 03:55:42;;;;;;;43.70;20.23;;;11.10;99.90;;;;;;5017766;28;20042;-60
2022/11/13 03:58:28;;;;;;;48.28;23.20;;;11.20;99.90;;;;;;5014236;28;20042;-60
2022/11/13 04:01:14;;;;;;;50.65;20.85;;;11.20;99.90;;;;;;5014725;28;20042;-60
2022/11/13 04:04:01;;;;;;;47.05;19.85;;;11.20;99.90;;;;;;5030235;28;20493;-60
2022/11/13 04:06:46;;;;;;;48.03;20.92;;;11.10;99.90;;;;;;5011468;28;20486;-64
2022/11/13 04:09:33;;;;;;;41.50;20.08;;;11.20;99.90;;;;;;5018852;28;20042;-62
2022/11/13 04:12:19;;;;;;;45.05;19.40;;;11.20;99.90;;;;;;5031154;28;20048;-59
2022/11/13 04:15:06;;;;;;;47.25;20.98;;;11.20;99.90;;;;;;5014640;28;20053;-60
2022/11/13 04:17:52;;;;;;;45.42;20.35;;;11.20;99.90;;;;;;5011411;28;20042;-60
2022/11/13 04:20:38;;;;;;;45.63;20.83;;;11.20;99.90;;;;;;5031268;28;20484;-60
2022/11/13 04:23:24;;;;;;;43.65;19.23;;;11.20;99.90;;;;;;5031437;28;20424;-62
2022/11/13 04:26:10;;;;;;;50.67;21.30;;;11.20;99.90;;;;;;5035100;28;20401;-60
2022/11/13 04:28:56;;;;;;;46.65;20.90;;;11.20;99.90;;;;;;5035159;28;20044;-60
2022/11/13 04:31:42;;;;;;;45.03;21.63;;;11.20;99.90;;;;;;5033775;28;20061;-60
2022/11/13 04:34:28;;;;;;;44.63;20.48;;;11.20;99.90;;;;;;5035021;28;20050;-60
2022/11/13 04:37:14;;;;;;;45.13;19.48;;;11.30;99.90;;;;;;5034580;28;20061;-60
2022/11/13 04:40:00;;;;;;;49.60;20.88;;;11.20;99.90;;;;;;5026756;28;20489;-60
2022/11/13 04:42:49;;;;;;;48.97;21.50;;;11.20;99.90;;;;;;5015052;28;20390;-60
2022/11/13 04:45:36;;;;;;;46.00;21.23;;;11.30;99.90;;;;;;5014938;28;20042;-59
2022/11/13 04:48:22;;;;;;;51.28;21.20;;;11.20;99.90;;;;;;5015069;28;20306;-59
2022/11/13 04:51:08;;;;;;;46.55;22.17;;;11.30;99.90;;;;;;5014903;28;20049;-61
2022/11/13 04:53:54;;;;;;;44.97;20.98;;;11.30;99.90;;;;;;5014887;28;20042;-63
2022/11/13 04:56:40;;;;;;;48.25;20.67;;;11.20;99.90;;;;;;5026898;28;20528;-64
2022/11/13 04:59:27;;;;;;;46.90;20.67;;;11.20;99.90;;;;;;5034336;28;20048;-60
2022/11/13 05:02:12;;;;;;;46.05;20.27;;;11.20;99.90;;;;;;5034414;28;20481;-61
2022/11/13 05:04:59;;;;;;;43.13;19.45;;;11.20;99.90;;;;;;5034324;28;20374;-60
2022/11/13 05:07:50;;;;;;;46.85;19.48;;;11.20;99.90;;;;;;5033961;28;20038;-60
2022/11/13 05:10:36;;;;;;;47.20;20.05;;;11.20;99.90;;;;;;5034302;28;20052;-61
2022/11/13 05:13:23;;;;;;;52.08;20.52;;;11.20;99.90;;;;;;5034106;28;20508;-59
2022/11/13 05:16:11;;;;;;;55.13;20.42;;;11.10;99.90;;;;;;5033152;28;20050;-61
2022/11/13 05:18:58;;;;;;;50.85;20.70;;;11.10;99.90;;;;;;5034202;28;20046;-61
2022/11/13 05:21:44;;;;;;;52.30;20.20;;;11.10;99.90;;;;;;5033941;28;20045;-60
2022/11/13 05:24:30;;;;;;;53.72;20.98;;;11.10;99.90;;;;;;5034075;28;20049;-59
2022/11/13 05:27:16;;;;;;;57.83;21.48;;;11.10;99.90;;;;;;5033902;28;20044;-60
2022/11/13 05:30:03;;;;;;;66.28;20.30;;;11.00;99.90;;;;;;5033959;28;20052;-60
2022/11/13 05:32:51;;;;;;;57.30;19.85;;;11.00;99.90;;;;;;5033788;28;20042;-60
2022/11/13 05:35:37;;;;;;;57.33;21.15;;;11.00;99.90;;;;;;5032994;28;20041;-60
2022/11/13 05:38:23;;;;;;;62.17;20.95;;;10.90;99.90;;;;;;5033522;28;20045;-65
2022/11/13 05:41:15;;;;;;;58.17;20.30;;;10.90;99.90;;;;;;5033836;28;20041;-66
2022/11/13 05:44:02;;;;;;;55.33;19.70;;;10.90;99.90;;;;;;5032276;28;20049;-60
2022/11/13 05:46:48;;;;;;;52.78;19.77;;;10.90;99.90;;;;;;5033481;28;20050;-65
2022/11/13 05:49:33;;;;;;;62.40;21.27;;;10.90;99.90;;;;;;5026376;28;20052;-60
2022/11/13 05:52:23;;;;;;;49.50;21.42;;;;;;;;;;5030065;28;20049;-63
2022/11/13 05:55:09;;;;;;;49.13;20.63;;;10.90;99.90;;;;;;5030153;28;20056;-66
2022/11/13 05:57:57;;;;;;;50.67;20.05;;;10.90;99.90;;;;;;5017373;28;20037;-61
2022/11/13 06:00:44;;;;;;;60.53;20.77;;;10.90;99.90;;;;;;5030241;28;20042;-63
2022/11/13 06:03:30;;;;;;;56.38;21.10;;;10.90;99.90;;;;;;5006405;28;20069;-69
2022/11/13 06:06:19;;;;;;;52.13;20.42;;;10.90;99.90;;;;;;5006931;28;20046;-76
2022/11/13 06:09:05;;;;;;;62.15;20.95;;;10.90;99.90;;;;;;5023207;28;20045;-79
2022/11/13 06:11:52;;;;;;;59.63;21.15;;;10.90;99.90;;;;;;5029549;28;20041;-79
2022/11/13 06:14:41;;;;;;;56.30;21.77;;;10.90;99.90;;;;;;5009533;28;20049;-80
2022/11/13 06:17:27;;;;;;;67.22;21.30;;;10.90;99.90;;;;;;5011594;28;20053;-65
2022/11/13 06:20:14;;;;;;;56.95;21.00;;;10.90;99.90;;;;;;5008583;28;20053;-63
2022/11/13 06:23:01;;;;;;;55.63;19.67;;;10.90;99.90;;;;;;5024604;28;20401;-67
2022/11/13 06:25:47;;;;;;;63.72;21.33;;;10.90;99.90;;;;;;5026237;28;20201;-80
2022/11/13 06:28:34;;;;;;;61.88;21.23;;;10.90;99.90;;;;;;5026063;28;20048;-75
2022/11/13 06:31:30;;;;;;;61.85;22.85;;;10.90;99.90;;;;;;5028872;28;20045;-71
2022/11/13 06:34:16;;;;;;;61.53;21.20;;;10.90;99.90;;;;;;5014101;28;20512;-63
2022/11/13 06:37:02;;;;;;;65.50;21.75;;;10.90;99.90;;;;;;5006699;28;20049;-72
2022/11/13 06:39:49;;;;;;;60.92;20.92;;;10.90;99.90;;;;;;5006616;28;20050;-78
2022/11/13 06:42:35;;;;;;;63.15;20.85;;;10.90;99.90;;;;;;5011978;28;20045;-70
2022/11/13 06:45:22;;;;;;;68.53;20.90;;;10.90;99.90;;;;;;5025488;28;20045;-68
2022/11/13 06:48:08;;;;;;;64.30;21.98;;;11.00;99.90;;;;;;5024130;28;20038;-80
2022/11/13 06:50:54;;;;;;;70.82;21.13;;;9.40;99.90;;;;;;5010592;28;20486;-75
2022/11/13 06:53:41;;;;;;;65.90;21.23;;;11.00;99.90;;;;;;5017797;28;20053;-69
2022/11/13 06:56:27;;;;;;;70.88;20.85;;;10.90;99.90;;;;;;5011164;28;20052;-71
2022/11/13 06:59:13;;;;;;;70.50;20.92;;;10.90;99.90;;;;;;5021174;28;20071;-67
2022/11/13 07:01:59;;;;;;;82.53;22.10;;;10.90;99.90;;;;;;5016154;28;20552;-63
2022/11/13 07:04:45;;;;;;;77.72;24.20;;;10.90;99.90;;;;;;5007754;28;20573;-63
2022/11/13 07:07:31;;;;;;;81.65;23.30;;;10.90;99.90;;;;;;5008615;28;20478;-62
2022/11/13 07:10:17;;;;;;;73.78;21.88;;;10.90;99.90;;;;;;5009042;28;20402;-78
2022/11/13 07:13:05;;;;;;;80.20;22.88;;;10.90;99.90;;;;;;5015569;28;20433;-69
2022/11/13 07:15:51;;;;;;;78.05;22.92;;;10.90;99.90;;;;;;5008873;28;20234;-68
2022/11/13 07:18:37;;;;;;;94.05;24.73;;;10.90;99.90;;;;;;5019627;28;20045;-67
2022/11/13 07:21:24;;;;;;;92.10;23.27;;;10.90;99.90;;;;;;5024488;28;20049;-57
2022/11/13 07:24:11;;;;;;;89.45;24.38;;;10.90;99.90;;;;;;5024665;28;20363;-63
2022/11/13 07:27:02;;;;;;;82.57;23.05;;;10.90;99.90;;;;;;5025030;28;20052;-60
2022/11/13 07:29:48;;;;;;;91.22;25.25;;;10.90;99.90;;;;;;5005472;28;20057;-67
2022/11/13 07:32:34;;;;;;;92.63;23.63;;;10.90;99.90;;;;;;5013450;28;20053;-65
2022/11/13 07:35:21;;;;;;;100.88;24.85;;;10.90;99.90;;;;;;5008162;28;20776;-77
2022/11/13 07:38:07;;;;;;;108.70;24.58;;;10.90;99.90;;;;;;5018637;28;20485;-68
2022/11/13 07:40:56;;;;;;;113.57;23.20;;;10.90;99.90;;;;;;5012679;28;20056;-59
2022/11/13 07:43:41;;;;;;;95.60;24.27;;;10.90;99.90;;;;;;5016163;28;20045;-64
2022/11/13 07:46:28;;;;;;;101.45;24.02;;;10.90;99.90;;;;;;5026408;28;20046;-61
2022/11/13 07:49:14;;;;;;;86.05;21.27;;;10.80;99.90;;;;;;5009810;28;20041;-58
2022/11/13 07:52:00;;;;;;;76.15;20.80;;;10.80;99.90;;;;;;5008696;28;20042;-71
2022/11/13 07:54:47;;;;;;;71.85;20.63;;;10.80;99.90;;;;;;5008450;28;20038;-82
2022/11/13 07:57:33;;;;;;;75.38;21.00;;;10.80;99.90;;;;;;5026118;28;20050;-82
2022/11/13 08:00:20;;;;;;;77.90;21.83;;;10.70;99.90;;;;;;5034321;28;20048;-81
2022/11/13 08:03:15;;;;;;;82.10;22.63;;;10.70;99.90;;;;;;5028119;28;20053;-82
2022/11/13 08:06:04;;;;;;;69.95;19.33;;;10.70;99.90;;;;;;5011664;28;20072;-73
2022/11/13 08:08:50;;;;;;;70.20;21.30;;;10.70;99.90;;;;;;5015182;28;20045;-59
2022/11/13 08:11:36;;;;;;;62.38;19.35;;;10.70;99.90;;;;;;5014280;28;20057;-57
2022/11/13 08:14:23;;;;;;;74.20;20.25;;;10.70;99.90;;;;;;5033898;28;20045;-67
2022/11/13 08:17:08;;;;;;;80.10;21.33;;;10.70;99.90;;;;;;5023358;28;20046;-73
2022/11/13 08:19:55;;;;;;;74.80;21.30;;;10.70;99.90;;;;;;5019530;28;20065;-82
2022/11/13 08:22:41;;;;;;;78.05;19.98;;;;;;;;;;5020750;28;20044;-73
2022/11/13 08:25:28;;;;;;;75.05;20.70;;;10.70;99.90;;;;;;5017049;28;20088;-82
2022/11/13 08:28:15;;;;;;;74.40;21.20;;;10.70;99.90;;;;;;5028826;28;20072;-71
2022/11/13 08:31:01;;;;;;;67.65;19.30;;;10.70;99.90;;;;;;5024672;28;20053;-67
2022/11/13 08:33:48;;;;;;;61.30;17.52;;;10.70;99.90;;;;;;5027023;28;20409;-76
2022/11/13 08:36:34;;;;;;;74.82;17.65;;;10.70;99.90;;;;;;5034509;28;20045;-79
2022/11/13 08:39:20;;;;;;;64.75;19.38;;;10.70;99.90;;;;;;5027225;28;20042;-82
2022/11/13 08:42:06;;;;;;;54.15;17.77;;;10.70;99.90;;;;;;5016493;28;20379;-67
2022/11/13 08:44:53;;;;;;;68.40;19.55;;;10.70;99.90;;;;;;5032134;28;20041;-69
2022/11/13 08:47:39;;;;;;;58.15;16.50;;;10.60;99.90;;;;;;5018584;28;20049;-79
2022/11/13 08:50:25;;;;;;;64.88;18.05;;;10.60;99.90;;;;;;5017270;28;20436;-69
2022/11/13 08:53:11;;;;;;;60.67;17.63;;;10.70;99.90;;;;;;5022137;28;20442;-82
2022/11/13 08:56:01;;;;;;;69.82;19.40;;;10.70;99.90;;;;;;5020588;28;20045;-79
2022/11/13 08:58:49;;;;;;;62.25;17.70;;;10.70;99.90;;;;;;5033986;28;20552;-83
2022/11/13 09:01:35;;;;;;;48.08;15.63;;;10.70;99.90;;;;;;5034302;28;20049;-59
2022/11/13 09:04:23;;;;;;;62.60;17.73;;;10.70;99.90;;;;;;5024829;28;20041;-67
2022/11/13 09:07:10;;;;;;;54.13;16.42;;;10.70;99.90;;;;;;5013867;28;20049;-60
2022/11/13 09:09:56;;;;;;;61.15;17.92;;;10.70;99.90;;;;;;5032239;28;20041;-65
2022/11/13 09:12:43;;;;;;;48.78;15.18;;;10.70;99.90;;;;;;5029393;28;20041;-60
2022/11/13 09:15:31;;;;;;;56.90;16.45;;;10.70;99.90;;;;;;5030610;28;20584;-64
2022/11/13 09:18:17;;;;;;;59.05;17.50;;;10.70;99.90;;;;;;5029118;28;20061;-63
2022/11/13 09:21:03;;;;;;;54.58;17.65;;;10.70;99.90;;;;;;5015793;28;20041;-61
2022/11/13 09:23:49;;;;;;;54.97;17.98;;;10.70;99.90;;;;;;5030152;28;20053;-64
2022/11/13 09:26:36;;;;;;;56.15;16.83;;;10.70;99.90;;;;;;5027825;28;20602;-61
2022/11/13 09:29:22;;;;;;;43.40;15.95;;;10.70;99.90;;;;;;5012390;28;20056;-59
2022/11/13 09:32:08;;;;;;;44.35;14.73;;;10.80;99.90;;;;;;5030443;28;20477;-70
2022/11/13 09:34:54;;;;;;;49.15;16.02;;;10.70;99.90;;;;;;5024737;28;20057;-68
2022/11/13 09:37:41;;;;;;;41.30;15.98;;;10.70;99.90;;;;;;5014938;28;20045;-60
2022/11/13 09:40:56;;;;;;;39.58;13.25;;;10.80;99.90;;;;;;5030414;28;20493;-60
2022/11/13 09:43:53;;;;;;;41.60;13.35;;;10.70;99.90;;;;;;5014207;28;20137;-65
2022/11/13 09:47:00;;;;;;;49.97;14.85;;;10.80;99.90;;;;;;5013395;28;20060;-62
2022/11/13 09:49:50;;;;;;;39.20;14.50;;;10.80;99.90;;;;;;5010452;28;20049;-59
2022/11/13 09:52:39;;;;;;;52.85;15.82;;;10.80;99.90;;;;;;5015385;28;20056;-59
2022/11/13 09:55:31;;;;;;;42.03;13.07;;;10.80;99.90;;;;;;5030007;28;20045;-61
2022/11/13 09:58:26;;;;;;;39.15;13.95;;;10.80;99.90;;;;;;5025094;28;20041;-62
2022/11/13 10:01:27;;;;;;;39.80;14.13;;;10.90;99.90;;;;;;5017092;28;20524;-64
2022/11/13 10:04:17;;;;;;;37.95;13.73;;;11.00;99.90;;;;;;5020118;28;20041;-71
2022/11/13 10:07:29;;;;;;;45.28;13.50;;;10.90;99.90;;;;;;5016817;28;20508;-60
2022/11/13 10:10:45;;;;;;;39.53;13.60;;;11.00;99.90;;;;;;5015772;28;20042;-63
2022/11/13 10:13:49;;;;;;;33.50;13.73;;;11.00;99.90;;;;;;5011148;28;20041;-68
2022/11/13 10:16:59;;;;;;;37.20;13.80;;;11.00;99.90;;;;;;5013476;28;20050;-60
2022/11/13 10:19:58;;;;;;;40.83;15.57;;;11.00;99.90;;;;;;5010660;28;20058;-64
2022/11/13 10:22:53;;;;;;;36.97;13.70;;;11.10;99.90;;;;;;5025524;28;20046;-60
2022/11/13 10:25:41;;;;;;;30.50;11.75;;;11.10;99.90;;;;;;5014672;28;20061;-60
2022/11/13 10:28:27;;;;;;;31.85;12.35;;;11.20;99.90;;;;;;5021460;28;20117;-60
2022/11/13 10:31:48;;;;;;;32.35;12.57;;;11.30;99.90;;;;;;5026321;28;20474;-59
2022/11/13 10:34:34;;;;;;;29.27;12.65;;;11.40;99.90;;;;;;5011983;28;20386;-63
2022/11/13 10:37:32;;;;;;;31.08;12.88;;;11.40;99.90;;;;;;5025634;28;20086;-59
2022/11/13 10:40:34;;;;;;;33.75;12.85;;;11.50;99.90;;;;;;5025126;28;20084;-58
2022/11/13 10:43:24;;;;;;;32.47;12.95;;;11.60;99.90;;;;;;5021235;28;20057;-59
2022/11/13 10:46:28;;;;;;;23.80;10.88;;;11.60;99.90;;;;;;5019992;28;20046;-59
2022/11/13 10:49:20;;;;;;;24.48;10.98;;;11.80;99.90;;;;;;5006353;28;20046;-59
2022/11/13 10:52:22;;;;;;;23.50;11.70;;;11.90;99.90;;;;;;5016964;28;20379;-60
2022/11/13 10:55:34;;;;;;;24.65;10.98;;;11.90;99.90;;;;;;5009454;28;20057;-60
2022/11/13 10:58:21;;;;;;;27.25;11.23;;;12.00;99.90;;;;;;5005264;28;20044;-64
2022/11/13 11:01:22;;;;;;;22.85;10.55;;;12.00;99.90;;;;;;5005584;28;20046;-62
2022/11/13 11:04:19;;;;;;;25.70;11.68;;;12.00;99.90;;;;;;5005411;28;20041;-70
2022/11/13 11:07:22;;;;;;;22.15;10.23;;;12.00;99.90;;;;;;5006473;28;20053;-65
2022/11/13 11:10:30;;;;;;;24.25;10.48;;;12.00;99.90;;;;;;5007622;28;20591;-67
2022/11/13 11:13:22;;;;;;;20.73;9.65;;;12.00;99.90;;;;;;5008839;28;20422;-59
2022/11/13 11:16:16;;;;;;;24.13;11.50;;;12.00;99.90;;;;;;5013938;28;20045;-76
2022/11/13 11:19:09;;;;;;;23.25;11.45;;;12.00;99.90;;;;;;5015198;28;20065;-63
2022/11/13 11:22:08;;;;;;;22.67;11.93;;;12.00;99.90;;;;;;5017211;28;20050;-60
2022/11/13 11:25:01;;;;;;;21.42;9.93;;;12.10;99.90;;;;;;5006489;28;20542;-60
2022/11/13 11:27:54;;;;;;;21.63;11.40;;;12.20;99.90;;;;;;5021600;28;20168;-60
2022/11/13 11:30:49;;;;;;;23.55;11.65;;;12.40;99.90;;;;;;5008312;28;20488;-62
2022/11/13 11:34:00;;;;;;;23.17;11.30;;;12.30;99.90;;;;;;5009868;28;20084;-63
2022/11/13 11:37:13;;;;;;;25.40;11.63;;;12.30;99.90;;;;;;5003399;28;20061;-73
2022/11/13 11:40:14;;;;;;;28.20;13.75;;;12.60;99.90;;;;;;5004288;28;20069;-70
2022/11/13 11:43:12;;;;;;;26.92;11.88;;;12.60;99.90;;;;;;5013114;28;20040;-67
2022/11/13 11:45:58;;;;;;;26.50;13.32;;;13.00;99.90;;;;;;5020299;28;20038;-64
2022/11/13 11:48:45;;;;;;;23.98;12.48;;;13.10;99.90;;;;;;5017021;28;20038;-58
2022/11/13 11:51:37;;;;;;;20.58;10.60;;;13.20;99.90;;;;;;5006672;28;20050;-59
2022/11/13 11:54:38;;;;;;;21.67;10.18;;;13.20;99.90;;;;;;5008574;28;20034;-59
2022/11/13 11:57:45;;;;;;;19.52;10.30;;;13.20;99.90;;;;;;5025185;28;20053;-60
2022/11/13 12:00:32;;;;;;;21.10;10.57;;;13.60;99.90;;;;;;5019404;28;20052;-63
2022/11/13 12:03:48;;;;;;;20.40;11.05;;;14.10;99.90;;;;;;5018090;28;20048;-61
2022/11/13 12:07:12;;;;;;;19.13;9.38;;;14.70;99.90;;;;;;5026462;28;20046;-61
2022/11/13 12:10:27;;;;;;;16.73;8.68;;;15.30;99.90;;;;;;5008111;28;20050;-61
2022/11/13 12:13:32;;;;;;;20.52;9.90;;;15.40;99.90;;;;;;5017791;28;20044;-64
2022/11/13 12:16:36;;;;;;;18.50;9.45;;;15.50;99.90;;;;;;5026044;28;20044;-60
2022/11/13 12:19:30;;;;;;;17.27;8.15;;;15.60;99.90;;;;;;5026711;28;20463;-61
2022/11/13 12:23:12;;;;;;;19.75;10.57;;;15.50;99.90;;;;;;5027732;28;20397;-61
2022/11/13 12:26:29;;;;;;;21.48;10.48;;;14.70;99.90;;;;;;5017983;28;20052;-61
2022/11/13 12:29:37;;;;;;;20.60;10.32;;;14.60;99.90;;;;;;5027567;28;20639;-59
2022/11/13 12:32:45;;;;;;;20.25;10.65;;;14.30;99.90;;;;;;5026528;28;20064;-59
2022/11/13 12:35:32;;;;;;;22.52;10.35;;;13.90;99.90;;;;;;5016185;28;20295;-59
2022/11/13 12:38:30;;;;;;;26.42;12.40;;;13.50;99.90;;;;;;5012960;28;20697;-60
2022/11/13 12:41:36;;;;;;;24.75;11.93;;;13.40;99.90;;;;;;5007998;28;20449;-60
2022/11/13 12:44:26;;;;;;;26.50;11.55;;;13.30;99.90;;;;;;5026705;28;20042;-63
2022/11/13 12:47:16;;;;;;;23.35;10.50;;;13.20;99.90;;;;;;5030864;28;20057;-59
2022/11/13 12:50:05;;;;;;;23.42;11.60;;;13.00;99.90;;;;;;5009660;28;20593;-60
2022/11/13 12:53:08;;;;;;;24.70;11.57;;;13.00;99.90;;;;;;5013510;28;20049;-61
2022/11/13 12:56:00;;;;;;;24.27;11.43;;;13.10;99.90;;;;;;5007371;28;20038;-60
2022/11/13 12:58:59;;;;;;;20.63;10.05;;;13.20;99.90;;;;;;5006440;28;20049;-59
2022/11/13 13:02:05;;;;;;;20.70;10.80;;;13.70;99.90;;;;;;5018564;28;20046;-62
2022/11/13 13:05:18;;;;;;;19.88;10.45;;;14.40;99.90;;;;;;5016994;28;20628;-60
2022/11/13 13:08:15;;;;;;;22.75;11.00;;;15.00;99.90;;;;;;5017654;28;20053;-60
2022/11/13 13:11:23;;;;;;;19.67;10.48;;;15.60;99.90;;;;;;5011055;28;20050;-60
2022/11/13 13:14:49;;;;;;;17.38;9.60;;;16.00;99.90;;;;;;5017267;28;20042;-59
2022/11/13 13:17:34;;;;;;;16.30;9.02;;;16.20;99.90;;;;;;5020418;28;20417;-60
2022/11/13 13:20:21;;;;;;;16.55;9.23;;;16.70;99.90;;;;;;5030965;28;20038;-63
2022/11/13 13:23:11;;;;;;;19.48;9.48;;;16.60;99.90;;;;;;5026020;28;20046;-59
2022/11/13 13:26:25;;;;;;;23.67;10.77;;;16.80;99.90;;;;;;5017165;28;20041;-65
2022/11/13 13:29:19;;;;;;;18.90;10.32;;;16.90;99.90;;;;;;5024593;28;20053;-69
2022/11/13 13:32:48;;;;;;;21.75;10.90;;;17.00;99.90;;;;;;5015717;28;20049;-68
2022/11/13 13:35:50;;;;;;;21.08;10.85;;;17.10;99.90;;;;;;5029996;28;20053;-72
2022/11/13 13:38:57;;;;;;;22.30;11.05;;;17.40;99.90;;;;;;5030086;28;20049;-61
2022/11/13 13:42:05;;;;;;;18.73;10.48;;;17.90;99.90;;;;;;5020413;28;20045;-63
2022/11/13 13:45:01;;;;;;;19.85;10.10;;;17.90;99.90;;;;;;5022535;28;20045;-61
2022/11/13 13:47:50;;;;;;;20.42;10.65;;;18.00;99.90;;;;;;5029945;28;20042;-64
2022/11/13 13:50:44;;;;;;;22.98;10.25;;;18.10;99.90;;;;;;5030234;28;20522;-62
2022/11/13 13:53:33;;;;;;;20.52;10.13;;;18.10;99.90;;;;;;5020205;28;20399;-61
2022/11/13 13:56:21;;;;;;;20.40;9.73;;;18.00;99.90;;;;;;5028364;28;20049;-61
2022/11/13 13:59:18;;;;;;;19.58;10.00;;;17.90;99.90;;;;;;5023160;28;20045;-77
2022/11/13 14:02:17;;;;;;;20.23;9.75;;;17.90;99.90;;;;;;5011201;28;20053;-76
2022/11/13 14:05:22;;;;;;;19.48;10.18;;;17.90;99.90;;;;;;5010031;28;20049;-74
2022/11/13 14:08:23;;;;;;;17.45;10.20;;;17.80;99.90;;;;;;5017159;28;20075;-76
2022/11/13 14:11:28;;;;;;;22.92;10.98;;;17.60;99.90;;;;;;5026438;28;20524;-73
2022/11/13 14:14:20;;;;;;;20.98;10.77;;;17.50;99.90;;;;;;5022014;28;20228;-77
2022/11/13 14:17:11;;;;;;;20.25;9.65;;;17.00;99.90;;;;;;5010015;28;20496;-74
2022/11/13 14:19:59;;;;;;;19.38;9.65;;;16.30;99.90;;;;;;5010143;28;20053;-77
2022/11/13 14:22:50;;;;;;;19.85;11.15;;;15.70;99.90;;;;;;5015209;28;20053;-64
2022/11/13 14:25:43;;;;;;;24.33;11.25;;;14.60;99.90;;;;;;5029258;28;20045;-59
2022/11/13 14:28:42;;;;;;;23.15;12.32;;;14.60;99.90;;;;;;5029531;28;20041;-58